createdAt,value
2018-11-12T00:00:37.935Z,12.47
2018-11-12T00:03:05.369Z,12.48
2018-11-12T00:05:32.820Z,12.62
2018-11-12T00:08:00.248Z,12.72
2018-11-12T00:10:27.688Z,12.56
2018-11-12T00:12:55.131Z,12.32
2018-11-12T00:15:22.568Z,12.37
2018-11-12T00:17:49.989Z,12.32
2018-11-12T00:20:17.444Z,12.45
2018-11-12T00:22:44.874Z,12.42
2018-11-12T00:25:12.330Z,12.51
2018-11-12T00:27:39.770Z,12.61
2018-11-12T00:30:07.192Z,12.76
2018-11-12T00:32:34.638Z,12.70
2018-11-12T00:35:02.064Z,12.57
2018-11-12T00:37:29.517Z,12.59
2018-11-12T00:39:56.961Z,12.26
2018-11-12T00:42:24.405Z,12.39
2018-11-12T00:44:51.836Z,12.43
2018-11-12T00:47:19.276Z,12.10
2018-11-12T00:49:46.702Z,12.35
2018-11-12T00:52:14.153Z,12.45
2018-11-12T00:54:41.580Z,12.47
2018-11-12T00:57:10.030Z,12.37
2018-11-12T00:59:37.520Z,12.68
2018-11-12T01:02:04.977Z,12.81
2018-11-12T01:04:32.413Z,12.86
2018-11-12T01:06:59.832Z,12.92
2018-11-12T01:09:27.283Z,12.90
2018-11-12T01:11:54.701Z,12.74
2018-11-12T01:14:22.148Z,12.83
2018-11-12T01:16:49.605Z,12.86
2018-11-12T01:19:17.034Z,12.90
2018-11-12T01:21:44.500Z,12.83
2018-11-12T01:24:11.936Z,12.91
2018-11-12T01:26:39.376Z,13.06
2018-11-12T01:29:06.801Z,12.97
2018-11-12T01:31:34.258Z,12.81
2018-11-12T01:34:01.687Z,12.65
2018-11-12T01:36:29.137Z,12.84
2018-11-12T01:38:56.560Z,12.58
2018-11-12T01:41:24.004Z,12.73
2018-11-12T01:43:51.428Z,12.89
2018-11-12T01:46:18.879Z,12.50
2018-11-12T01:48:46.302Z,12.81
2018-11-12T01:51:14.086Z,12.87
2018-11-12T01:53:41.512Z,12.81
2018-11-12T01:56:08.958Z,12.65
2018-11-12T01:58:36.409Z,12.70
2018-11-12T02:01:03.843Z,12.59
2018-11-12T02:03:31.289Z,12.61
2018-11-12T02:05:58.708Z,12.76
2018-11-12T02:08:26.148Z,12.64
2018-11-12T02:10:53.569Z,12.50
2018-11-12T02:13:21.029Z,12.22
2018-11-12T02:15:48.497Z,12.05
2018-11-12T02:18:15.941Z,11.98
2018-11-12T02:20:43.384Z,12.18
2018-11-12T02:23:10.813Z,12.32
2018-11-12T02:25:38.256Z,12.36
2018-11-12T02:28:05.685Z,12.51
2018-11-12T02:30:33.141Z,12.51
2018-11-12T02:33:00.627Z,12.48
2018-11-12T02:35:28.037Z,12.66
2018-11-12T02:37:55.461Z,12.72
2018-11-12T02:40:22.909Z,12.73
2018-11-12T02:42:50.338Z,12.68
2018-11-12T02:45:17.801Z,12.80
2018-11-12T02:47:45.248Z,12.77
2018-11-12T02:50:12.699Z,12.54
2018-11-12T02:52:40.124Z,12.68
2018-11-12T02:55:07.560Z,12.73
2018-11-12T02:57:35.044Z,12.69
2018-11-12T03:00:02.463Z,12.52
2018-11-12T03:02:29.898Z,12.55
2018-11-12T03:04:57.345Z,12.59
2018-11-12T03:07:25.790Z,12.70
2018-11-12T03:09:53.432Z,12.43
2018-11-12T03:12:20.876Z,12.52
2018-11-12T03:14:48.316Z,12.45
2018-11-12T03:17:15.736Z,12.34
2018-11-12T03:19:43.173Z,12.47
2018-11-12T03:22:10.617Z,12.52
2018-11-12T03:24:38.040Z,12.53
2018-11-12T03:27:05.489Z,12.74
2018-11-12T03:29:32.922Z,12.67
2018-11-12T03:32:00.362Z,12.71
2018-11-12T03:34:27.790Z,12.55
2018-11-12T03:36:55.308Z,12.44
2018-11-12T03:39:22.946Z,12.52
2018-11-12T03:41:50.367Z,12.35
2018-11-12T03:44:17.817Z,12.52
2018-11-12T03:46:45.244Z,12.64
2018-11-12T03:49:12.689Z,12.54
2018-11-12T03:51:40.112Z,12.62
2018-11-12T03:54:07.561Z,12.69
2018-11-12T03:56:34.982Z,12.64
2018-11-12T03:59:02.425Z,12.65
2018-11-12T04:01:29.869Z,12.66
2018-11-12T04:03:57.321Z,12.76
2018-11-12T04:06:24.749Z,12.77
2018-11-12T04:08:52.184Z,12.99
2018-11-12T04:11:19.605Z,13.03
2018-11-12T04:13:47.042Z,12.65
2018-11-12T04:16:14.523Z,12.80
2018-11-12T04:18:41.948Z,12.90
2018-11-12T04:21:09.377Z,12.81
2018-11-12T04:23:36.817Z,12.84
2018-11-12T04:26:04.257Z,13.01
2018-11-12T04:28:31.684Z,13.02
2018-11-12T04:30:59.147Z,13.07
2018-11-12T04:33:26.593Z,13.03
2018-11-12T04:35:54.020Z,12.95
2018-11-12T04:38:21.913Z,13.05
2018-11-12T04:40:49.467Z,13.07
2018-11-12T04:43:16.892Z,13.03
2018-11-12T04:45:44.380Z,13.01
2018-11-12T04:48:11.798Z,13.14
2018-11-12T04:50:39.235Z,13.12
2018-11-12T04:53:06.677Z,13.00
2018-11-12T04:55:34.137Z,13.10
2018-11-12T04:58:01.560Z,13.00
2018-11-12T05:00:29.839Z,12.98
2018-11-12T05:02:57.369Z,13.12
2018-11-12T05:05:24.791Z,13.05
2018-11-12T05:07:52.233Z,12.89
2018-11-12T05:10:19.675Z,12.87
2018-11-12T05:12:47.104Z,12.79
2018-11-12T05:15:14.544Z,13.09
2018-11-12T05:17:41.981Z,12.94
2018-11-12T05:20:09.477Z,12.63
2018-11-12T05:22:37.642Z,12.70
2018-11-12T05:25:05.086Z,12.90
2018-11-12T05:27:32.537Z,12.99
2018-11-12T05:29:59.974Z,13.09
2018-11-12T05:32:27.435Z,13.15
2018-11-12T05:34:54.856Z,13.21
2018-11-12T05:37:22.276Z,13.26
2018-11-12T05:39:49.725Z,13.26
2018-11-12T05:42:17.172Z,13.32
2018-11-12T05:44:44.654Z,13.25
2018-11-12T05:47:12.076Z,13.28
2018-11-12T05:49:39.500Z,13.16
2018-11-12T05:52:06.941Z,13.23
2018-11-12T05:54:34.391Z,13.29
2018-11-12T05:57:01.819Z,13.29
2018-11-12T05:59:29.260Z,13.20
2018-11-12T06:01:56.688Z,13.25
2018-11-12T06:04:24.156Z,13.25
2018-11-12T06:06:51.580Z,13.26
2018-11-12T06:09:19.004Z,13.20
2018-11-12T06:11:46.467Z,13.09
2018-11-12T06:14:13.909Z,13.24
2018-11-12T06:16:41.331Z,13.23
2018-11-12T06:19:08.772Z,13.28
2018-11-12T06:21:36.196Z,13.24
2018-11-12T06:24:03.638Z,13.04
2018-11-12T06:26:31.075Z,13.26
2018-11-12T06:28:58.501Z,13.26
2018-11-12T06:31:25.947Z,13.05
2018-11-12T06:33:53.369Z,13.27
2018-11-12T06:36:20.808Z,13.23
2018-11-12T06:38:48.228Z,13.13
2018-11-12T06:41:15.668Z,13.21
2018-11-12T06:43:43.096Z,13.20
2018-11-12T06:46:10.538Z,13.34
2018-11-12T06:48:37.963Z,13.41
2018-11-12T06:51:05.413Z,13.49
2018-11-12T06:53:32.884Z,13.40
2018-11-12T06:56:00.296Z,12.96
2018-11-12T06:58:27.725Z,13.19
2018-11-12T07:00:55.228Z,13.39
2018-11-12T07:03:22.601Z,13.23
2018-11-12T07:05:50.044Z,13.46
2018-11-12T07:08:17.473Z,13.53
2018-11-12T07:10:44.912Z,13.49
2018-11-12T07:13:12.411Z,13.26
2018-11-12T07:15:39.796Z,12.69
2018-11-12T07:18:07.247Z,13.07
2018-11-12T07:20:34.676Z,12.86
2018-11-12T07:23:02.120Z,12.70
2018-11-12T07:25:29.567Z,13.14
2018-11-12T07:27:57.005Z,13.25
2018-11-12T07:30:24.439Z,13.34
2018-11-12T07:32:51.864Z,13.40
2018-11-12T07:35:20.166Z,13.45
2018-11-12T07:37:47.681Z,13.49
2018-11-12T07:40:15.112Z,13.50
2018-11-12T07:42:42.559Z,13.58
2018-11-12T07:45:10.005Z,13.62
2018-11-12T07:47:37.444Z,13.66
2018-11-12T07:50:04.899Z,13.70
2018-11-12T07:52:32.340Z,13.72
2018-11-12T07:54:59.874Z,13.77
2018-11-12T07:57:27.309Z,13.72
2018-11-12T07:59:54.751Z,13.67
2018-11-12T08:02:22.172Z,13.75
2018-11-12T08:04:49.617Z,13.79
2018-11-12T08:07:17.052Z,13.78
2018-11-12T08:09:44.592Z,13.84
2018-11-12T08:12:11.976Z,13.79
2018-11-12T08:14:39.490Z,13.81
2018-11-12T08:17:06.872Z,13.80
2018-11-12T08:19:34.295Z,13.80
2018-11-12T08:22:01.736Z,13.82
2018-11-12T08:24:29.240Z,13.83
2018-11-12T08:26:56.644Z,13.89
2018-11-12T08:29:24.067Z,13.75
2018-11-12T08:31:51.521Z,13.82
2018-11-12T08:34:18.944Z,13.86
2018-11-12T08:36:46.391Z,13.78
2018-11-12T08:39:13.917Z,13.81
2018-11-12T08:41:41.266Z,13.81
2018-11-12T08:44:08.723Z,13.81
2018-11-12T08:46:36.164Z,13.80
2018-11-12T08:49:03.687Z,13.81
2018-11-12T08:51:32.306Z,13.78
2018-11-12T08:53:59.804Z,13.78
2018-11-12T08:56:27.232Z,13.78
2018-11-12T08:58:54.719Z,13.84
2018-11-12T09:01:22.113Z,13.53
2018-11-12T09:03:49.619Z,13.78
2018-11-12T09:06:17.001Z,13.81
2018-11-12T09:08:44.443Z,13.66
2018-11-12T09:11:11.870Z,13.76
2018-11-12T09:13:40.217Z,13.83
2018-11-12T09:16:07.777Z,13.83
2018-11-12T09:18:35.232Z,13.78
2018-11-12T09:21:02.656Z,13.85
2018-11-12T09:23:30.105Z,13.79
2018-11-12T09:25:57.540Z,13.91
2018-11-12T09:28:25.581Z,13.98
2018-11-12T09:30:55.112Z,14.03
2018-11-12T09:33:21.776Z,14.07
2018-11-12T09:35:49.274Z,13.97
2018-11-12T09:38:16.766Z,14.00
2018-11-12T09:40:44.192Z,14.03
2018-11-12T09:43:11.650Z,14.07
2018-11-12T09:45:39.072Z,14.20
2018-11-12T09:48:06.492Z,14.36
2018-11-12T09:50:33.928Z,14.39
2018-11-12T09:55:39.231Z,14.55
2018-11-12T09:58:06.612Z,14.69
2018-11-12T10:00:34.323Z,14.79
2018-11-12T10:03:02.486Z,14.86
2018-11-12T10:05:30.128Z,14.93
2018-11-12T10:07:58.477Z,15.00
2018-11-12T10:10:26.192Z,15.05
2018-11-12T10:12:53.403Z,15.08
2018-11-12T10:15:22.190Z,15.13
2018-11-12T10:17:48.907Z,15.25
2018-11-12T10:20:13.722Z,15.29
2018-11-12T10:22:41.174Z,15.40
2018-11-12T10:25:08.606Z,15.46
2018-11-12T10:27:36.040Z,15.54
2018-11-12T10:30:03.498Z,15.54
2018-11-12T10:32:30.926Z,15.55
2018-11-12T10:34:58.516Z,15.61
2018-11-12T10:37:25.949Z,15.50
2018-11-12T10:39:53.397Z,15.58
2018-11-12T10:42:20.844Z,15.54
2018-11-12T10:44:48.297Z,15.63
2018-11-12T10:47:15.726Z,15.71
2018-11-12T10:49:44.149Z,15.82
2018-11-12T10:52:11.684Z,15.82
2018-11-12T10:54:39.219Z,16.02
2018-11-12T10:57:06.558Z,16.04
2018-11-12T10:59:34.035Z,16.19
2018-11-12T11:02:01.477Z,16.25
2018-11-12T11:04:28.896Z,16.30
2018-11-12T11:06:56.340Z,16.36
2018-11-12T11:09:23.816Z,16.31
2018-11-12T11:11:51.268Z,16.45
2018-11-12T11:14:18.708Z,16.49
2018-11-12T11:16:46.144Z,16.52
2018-11-12T11:19:13.588Z,16.51
2018-11-12T11:21:41.096Z,16.54
2018-11-12T11:24:08.524Z,16.53
2018-11-12T11:26:35.970Z,16.61
2018-11-12T11:29:03.431Z,16.56
2018-11-12T11:31:30.901Z,16.58
2018-11-12T11:33:58.349Z,16.69
2018-11-12T11:36:25.815Z,16.71
2018-11-12T11:38:53.269Z,16.79
2018-11-12T11:41:20.704Z,16.85
2018-11-12T11:43:48.192Z,17.04
2018-11-12T11:46:15.604Z,17.08
2018-11-12T11:48:43.065Z,17.08
2018-11-12T11:51:10.493Z,17.19
2018-11-12T11:53:37.936Z,17.31
2018-11-12T11:56:05.360Z,17.23
2018-11-12T11:58:32.825Z,17.35
2018-11-12T12:01:00.288Z,17.29
2018-11-12T12:03:27.824Z,17.36
2018-11-12T12:05:56.985Z,17.48
2018-11-12T12:08:24.420Z,17.57
2018-11-12T12:10:51.877Z,17.76
2018-11-12T12:13:19.322Z,17.75
2018-11-12T12:15:47.043Z,17.87
2018-11-12T12:18:14.564Z,17.91
2018-11-12T12:20:41.964Z,17.87
2018-11-12T12:23:09.413Z,17.84
2018-11-12T12:25:36.888Z,17.73
2018-11-12T12:28:04.320Z,17.65
2018-11-12T12:30:31.744Z,17.75
2018-11-12T12:32:59.196Z,17.70
2018-11-12T12:35:26.619Z,17.74
2018-11-12T12:37:54.060Z,17.71
2018-11-12T12:40:23.229Z,17.62
2018-11-12T12:42:50.688Z,17.70
2018-11-12T12:45:18.320Z,17.61
2018-11-12T12:47:45.704Z,17.65
2018-11-12T12:50:13.149Z,17.73
2018-11-12T12:52:41.676Z,17.70
2018-11-12T12:55:09.615Z,17.72
2018-11-12T12:57:37.093Z,17.59
2018-11-12T13:00:04.591Z,17.54
2018-11-12T13:02:31.968Z,17.47
2018-11-12T13:04:59.478Z,17.52
2018-11-12T13:07:26.923Z,17.50
2018-11-12T13:09:54.316Z,17.62
2018-11-12T13:12:21.761Z,17.29
2018-11-12T13:14:49.368Z,16.86
2018-11-12T13:17:16.649Z,16.89
2018-11-12T13:19:44.205Z,16.87
2018-11-12T13:22:11.636Z,16.09
2018-11-12T13:24:39.060Z,15.72
2018-11-12T13:27:06.496Z,15.54
2018-11-12T13:29:33.944Z,15.40
2018-11-12T13:32:01.379Z,15.46
2018-11-12T13:34:28.822Z,15.02
2018-11-12T13:36:56.267Z,14.87
2018-11-12T13:39:23.803Z,14.75
2018-11-12T13:41:51.181Z,14.75
2018-11-12T13:44:18.650Z,14.57
2018-11-12T13:46:46.096Z,14.54
2018-11-12T13:49:13.537Z,14.68
2018-11-12T13:51:41.029Z,14.65
2018-11-12T13:54:08.472Z,14.51
2018-11-12T13:56:35.918Z,14.63
2018-11-12T13:59:03.356Z,14.66
2018-11-12T14:01:30.776Z,14.83
2018-11-12T14:03:58.213Z,14.55
2018-11-12T14:06:25.657Z,14.31
2018-11-12T14:08:54.260Z,14.36
2018-11-12T14:11:21.696Z,14.64
2018-11-12T14:13:49.147Z,14.53
2018-11-12T14:16:16.581Z,14.47
2018-11-12T14:18:44.005Z,14.30
2018-11-12T14:21:11.568Z,14.35
2018-11-12T14:23:38.897Z,14.29
2018-11-12T14:26:06.336Z,14.53
2018-11-12T14:28:33.888Z,14.45
2018-11-12T14:31:01.228Z,14.44
2018-11-12T14:33:28.719Z,14.53
2018-11-12T14:35:56.140Z,14.52
2018-11-12T14:38:23.572Z,14.27
2018-11-12T14:40:51.812Z,14.58
2018-11-12T14:43:19.344Z,14.81
2018-11-12T14:45:46.768Z,14.75
2018-11-12T14:48:14.204Z,14.96
2018-11-12T14:50:41.629Z,14.79
2018-11-12T14:53:09.068Z,14.65
2018-11-12T14:58:07.327Z,14.45
2018-11-12T15:00:34.767Z,14.46
2018-11-12T15:03:02.287Z,14.15
2018-11-12T15:05:29.739Z,14.29
2018-11-12T15:07:57.187Z,13.99
2018-11-12T15:10:24.642Z,14.08
2018-11-12T15:12:52.068Z,13.93
2018-11-12T15:15:19.524Z,13.93
2018-11-12T15:17:46.994Z,14.05
2018-11-12T15:20:14.442Z,13.62
2018-11-12T15:22:41.911Z,13.60
2018-11-12T15:25:09.383Z,14.07
2018-11-12T15:27:36.815Z,13.97
2018-11-12T15:30:04.279Z,13.79
2018-11-12T15:32:31.733Z,13.87
2018-11-12T15:34:59.180Z,13.64
2018-11-12T15:37:26.632Z,13.53
2018-11-12T15:39:54.076Z,13.31
2018-11-12T15:42:21.520Z,13.35
2018-11-12T15:44:48.979Z,13.39
2018-11-12T15:47:16.420Z,13.63
2018-11-12T15:49:43.853Z,13.34
2018-11-12T15:52:11.397Z,13.67
2018-11-12T15:54:38.827Z,13.56
2018-11-12T15:57:06.372Z,13.34
2018-11-12T15:59:33.769Z,13.51
2018-11-12T16:02:01.220Z,13.70
2018-11-12T16:04:28.669Z,13.86
2018-11-12T16:06:56.101Z,13.74
2018-11-12T16:09:23.596Z,13.93
2018-11-12T16:11:51.047Z,13.81
2018-11-12T16:14:18.467Z,14.03
2018-11-12T16:16:45.931Z,13.78
2018-11-12T16:19:13.463Z,14.06
2018-11-12T16:21:40.865Z,14.27
2018-11-12T16:24:08.296Z,13.64
2018-11-12T16:26:47.564Z,13.47
2018-11-12T16:29:14.940Z,13.55
2018-11-12T16:31:42.414Z,13.48
2018-11-12T16:34:09.859Z,13.07
2018-11-12T16:36:37.325Z,13.33
2018-11-12T16:39:04.776Z,13.41
2018-11-12T16:41:32.271Z,13.13
2018-11-12T16:43:59.702Z,13.11
2018-11-12T16:46:27.148Z,13.07
2018-11-12T16:48:54.596Z,13.18
2018-11-12T16:51:22.026Z,13.00
2018-11-12T16:53:49.600Z,12.76
2018-11-12T16:56:17.104Z,12.74
2018-11-12T16:58:44.537Z,12.82
2018-11-12T17:01:12.056Z,12.89
2018-11-12T17:03:39.461Z,13.05
2018-11-12T17:06:06.923Z,12.92
2018-11-12T17:08:34.372Z,12.94
2018-11-12T17:11:01.808Z,12.93
2018-11-12T17:13:29.273Z,12.90
2018-11-12T17:15:56.772Z,12.86
2018-11-12T17:18:24.222Z,12.55
2018-11-12T17:20:51.669Z,12.51
2018-11-12T17:23:19.115Z,12.62
2018-11-12T17:25:46.545Z,12.44
2018-11-12T17:28:13.988Z,12.45
2018-11-12T17:30:41.470Z,12.50
2018-11-12T17:33:08.875Z,12.39
2018-11-12T17:35:36.300Z,12.62
2018-11-12T17:38:03.745Z,12.56
2018-11-12T17:40:31.164Z,12.49
2018-11-12T17:42:58.608Z,12.40
2018-11-12T17:45:26.193Z,12.23
2018-11-12T17:47:53.671Z,12.31
2018-11-12T17:50:21.097Z,12.39
2018-11-12T17:52:48.515Z,12.19
2018-11-12T17:55:15.965Z,12.61
2018-11-12T17:57:43.426Z,12.63
2018-11-12T18:00:10.856Z,12.62
2018-11-12T18:02:38.281Z,12.42
2018-11-12T18:05:05.724Z,12.25
2018-11-12T18:07:33.297Z,12.65
2018-11-12T18:10:00.625Z,12.21
2018-11-12T18:12:28.076Z,12.55
2018-11-12T18:14:55.517Z,12.56
2018-11-12T18:17:22.936Z,12.67
2018-11-12T18:19:50.489Z,12.60
2018-11-12T18:22:17.916Z,12.41
2018-11-12T18:24:45.376Z,12.23
2018-11-12T18:27:12.828Z,12.39
2018-11-12T18:29:40.290Z,12.47
2018-11-12T18:32:07.755Z,12.66
2018-11-12T18:34:35.177Z,12.92
2018-11-12T18:37:02.625Z,12.63
2018-11-12T18:39:30.049Z,12.68
2018-11-12T18:41:57.501Z,12.66
2018-11-12T18:44:24.948Z,12.83
2018-11-12T18:46:52.501Z,12.78
2018-11-12T18:49:20.022Z,12.69
2018-11-12T18:51:48.254Z,12.91
2018-11-12T18:54:15.753Z,12.69
2018-11-12T18:56:43.200Z,12.27
2018-11-12T18:59:10.697Z,12.49
2018-11-12T19:04:30.721Z,12.55
2018-11-12T19:09:37.031Z,12.20
2018-11-12T19:12:04.472Z,12.20
2018-11-12T19:14:31.903Z,12.56
2018-11-12T19:16:59.364Z,12.38
2018-11-12T19:19:26.788Z,12.39
2018-11-12T19:21:54.263Z,12.25
2018-11-12T19:24:21.716Z,12.25
2018-11-12T19:26:49.157Z,12.45
2018-11-12T19:29:16.601Z,12.19
2018-11-12T19:31:44.041Z,12.22
2018-11-12T19:34:11.482Z,12.32
2018-11-12T19:36:38.913Z,12.35
2018-11-12T19:39:06.388Z,12.54
2018-11-12T19:41:33.828Z,12.49
2018-11-12T19:44:01.257Z,12.54
2018-11-12T19:46:28.701Z,12.69
2018-11-12T19:48:56.144Z,12.71
2018-11-12T19:51:23.631Z,12.38
2018-11-12T19:53:51.112Z,12.74
2018-11-12T19:56:18.553Z,12.90
2018-11-12T19:58:46.037Z,13.11
2018-11-12T20:01:13.444Z,13.08
2018-11-12T20:03:40.887Z,13.02
2018-11-12T20:06:08.316Z,12.76
2018-11-12T20:08:35.759Z,12.96
2018-11-12T20:11:03.193Z,12.81
2018-11-12T20:13:30.662Z,12.46
2018-11-12T20:15:58.092Z,12.65
2018-11-12T20:18:25.534Z,12.80
2018-11-12T20:20:52.964Z,12.60
2018-11-12T20:23:20.401Z,12.68
2018-11-12T20:25:47.884Z,12.83
2018-11-12T20:28:15.320Z,12.75
2018-11-12T20:30:42.780Z,12.78
2018-11-12T20:33:10.273Z,12.90
2018-11-12T20:35:37.705Z,12.75
2018-11-12T20:38:05.156Z,12.79
2018-11-12T20:40:32.606Z,13.11
2018-11-12T20:43:00.056Z,12.82
2018-11-12T20:45:27.499Z,13.17
2018-11-12T20:47:54.946Z,13.31
2018-11-12T20:50:22.372Z,13.39
2018-11-12T20:52:49.805Z,13.18
2018-11-12T20:55:17.241Z,13.14
2018-11-12T20:57:44.667Z,12.97
2018-11-12T21:00:12.127Z,12.88
2018-11-12T21:02:39.579Z,13.08
2018-11-12T21:05:06.996Z,12.91
2018-11-12T21:07:34.432Z,12.82
2018-11-12T21:10:01.872Z,12.64
2018-11-12T21:12:29.304Z,12.47
2018-11-12T21:14:56.745Z,12.37
2018-11-12T21:17:24.211Z,12.45
2018-11-12T21:19:51.668Z,12.65
2018-11-12T21:22:20.297Z,12.61
2018-11-12T21:24:47.776Z,12.81
2018-11-12T21:27:15.222Z,12.74
2018-11-12T21:29:42.665Z,12.90
2018-11-12T21:32:10.102Z,12.79
2018-11-12T21:34:37.541Z,12.96
2018-11-12T21:37:05.047Z,12.63
2018-11-12T21:39:32.434Z,12.54
2018-11-12T21:41:59.870Z,12.53
2018-11-12T21:44:27.324Z,12.40
2018-11-12T21:46:54.759Z,12.47
2018-11-12T21:49:22.205Z,12.73
2018-11-12T21:51:49.636Z,12.92
2018-11-12T21:54:17.076Z,12.76
2018-11-12T21:56:44.515Z,12.69
2018-11-12T21:59:11.970Z,12.96
2018-11-12T22:01:39.417Z,12.72
2018-11-12T22:04:06.861Z,12.72
2018-11-12T22:06:34.306Z,12.65
2018-11-12T22:09:01.774Z,12.64
2018-11-12T22:11:29.209Z,12.51
2018-11-12T22:13:57.459Z,12.77
2018-11-12T22:16:25.026Z,12.66
2018-11-12T22:18:52.842Z,12.38
2018-11-12T22:21:20.356Z,12.44
2018-11-12T22:23:47.820Z,12.31
2018-11-12T22:26:15.255Z,12.10
2018-11-12T22:28:42.727Z,12.57
2018-11-12T22:31:10.200Z,12.53
2018-11-12T22:33:37.661Z,12.20
2018-11-12T22:36:05.097Z,12.19
2018-11-12T22:38:32.541Z,12.11
2018-11-12T22:40:59.976Z,12.37
2018-11-12T22:43:27.450Z,12.55
2018-11-12T22:45:54.986Z,12.41
2018-11-12T22:48:22.333Z,12.15
2018-11-12T22:50:49.797Z,12.37
2018-11-12T22:53:17.269Z,12.33
2018-11-12T22:55:44.721Z,12.20
2018-11-12T22:58:12.218Z,11.99
2018-11-12T23:00:39.720Z,12.35
2018-11-12T23:03:07.156Z,12.11
2018-11-12T23:05:34.596Z,12.30
2018-11-12T23:08:02.050Z,12.33
2018-11-12T23:10:29.496Z,12.39
2018-11-12T23:12:56.934Z,12.49
2018-11-12T23:15:24.372Z,12.57
2018-11-12T23:17:51.828Z,12.67
2018-11-12T23:20:19.871Z,12.55
2018-11-12T23:22:47.341Z,12.70
2018-11-12T23:25:14.796Z,12.83
2018-11-12T23:27:42.251Z,12.88
2018-11-12T23:30:09.705Z,12.57
2018-11-12T23:32:37.181Z,12.14
2018-11-12T23:35:04.737Z,12.07
2018-11-12T23:37:32.184Z,11.89
2018-11-12T23:39:59.633Z,11.86
2018-11-12T23:42:27.077Z,11.57
2018-11-12T23:44:54.540Z,11.37
2018-11-12T23:47:22.036Z,11.64
2018-11-12T23:49:49.496Z,11.26
2018-11-12T23:52:16.941Z,11.47
2018-11-12T23:54:44.379Z,11.25
2018-11-12T23:57:11.818Z,11.29
2018-11-12T23:59:39.254Z,11.28
